Delhi, IA (52223)

3:09 AM CDT on July 26, 2014 (GMT -0500)
Jim Greif Farm.1 mile north of (KIAMONTI1) Elev 958 ft | 42.26 °N, 91.42 °W | Change Station

Current weather conditions updated 7 minutes ago

Overcast
Overcast
66.0 °F
Feels Like 66.0 °F
N
0.0
Wind Variable Wind from NNE
Gusts 8.0 mph

Today is forecast to be Much Warmer than yesterday.

Today
High -- | Low -- °F
--% Chance of Precip.
Yesterday
High -- | Low -- °F
Precip. -- in
5:51 AM 8:31 PM
Waning Crescent, 0% visible
Pressure 29.83 in
Visibility 10.0 miles
Clouds Few 3000 ft
Overcast 3400 ft
Dew Point 64 °F
Humidity 94%
Rainfall 0.00 in
Snow Depth Not available.
UV 0 out of 12
Pollen 6.00 out of 12
Air Quality Not available.
Flu Activity Not available.
METAR KMXO 260755Z AUTO 09005KT 10SM FEW030 OVC034 19/18 A2983 RMK AO2

More Conditions Fewer Conditions

Pressure 29.83 in
Visibility 10.0 miles
Clouds Few 3000 ft
Overcast 3400 ft
Dew Point 64 °F
Humidity 94%
Rainfall 0.00 in
Snow Depth Not available.
UV 0 out of 12
Pollen 6.00 out of 12
Air Quality Not available.
Flu Activity Not available.
METAR KMXO 260755Z AUTO 09005KT 10SM FEW030 OVC034 19/18 A2983 RMK AO2

More Conditions Fewer Conditions

10-Day Weather Forecast

Almanac

Astronomy

Jul. 26, 2014 Rise Set
Actual Time 5:51 AM CDT 8:31 PM CDT
Civil Twilight 5:19 AM CDT 9:03 PM CDT
Nautical Twilight 4:38 AM CDT 9:44 PM CDT
Astronomical Twilight 3:51 AM CDT 10:30 PM CDT
Moon 5:46 AM CDT 8:04 PM CDT
Length of Visible Light 15h 44m
Length of Day
14h 39m
Tomorrow will be 2m 0s shorter.
Waning Crescent, 0% of the Moon is Illuminated
Today
Waning Crescent
Jul 26
New
Aug 3
First Quarter
Aug 10
Full
Aug 17
Last Quarter

Today's Extremes

State Highs State Lows

Community

WunderPhotos

Upload Photos

1,737,529 photos uploaded!

Nearby

Snow Depth

Station Depth Elevation
No new snow has been reported.

Earthquake Activity

City Distance Mag. Time & Date
No recent earthquake activity has been reported nearby.
Minimum magnitude displayed is 2.5.

Coastal Water Temperatures

Place Temperature
No Stations Reporting

Nearby Weather Stations

Station Location Temp. Dew Point Humidity Wind Precip. Elev Updated Type
Jim Greif Farm.1 mile north of, Priarieburg, IA 66.0 °F 64 °F 94% NNE  at  0.0 mph 0.00 in / hr 958 ft 3:02 AM CDT Normal
South Lake, Farley, IA 65.0 °F 64 °F 95% East  at  1.0 mph 0.00 in / hr 1083 ft 3:09 AM CDT Rapid Fire
Rural wooded area, Central City, IA 66.9 °F 65 °F 94% West  at  0.0 mph - / hr 961 ft 2:55 AM CDT Normal
Rural Northern Linn County, Coggon, IA 67.5 °F - - ESE  at  0.0 mph - / hr 909 ft 3:06 AM CDT Normal
Strawberry Point, IA 65.7 °F 64 °F 93% East  at  4.0 mph 0.00 in / hr 1220 ft 3:08 AM CDT Normal
Whittier, Springville, IA 66.7 °F 64 °F 92% ESE  at  0.0 mph 0.00 in / hr 885 ft 3:04 AM CDT Normal

Show More Stations Show Fewer Stations